createdAt,value
2018-12-23T00:01:14.493Z,5.70
2018-12-23T00:03:45.258Z,4.73
2018-12-23T00:06:16.242Z,4.93
2018-12-23T00:08:47.227Z,5.60
2018-12-23T00:11:18.312Z,5.33
2018-12-23T00:13:49.549Z,5.20
2018-12-23T00:16:20.614Z,4.63
2018-12-23T00:18:51.808Z,5.10
2018-12-23T00:21:22.758Z,5.43
2018-12-23T00:23:53.742Z,4.83
2018-12-23T00:26:24.683Z,5.77
2018-12-23T00:28:55.523Z,5.27
2018-12-23T00:31:26.523Z,4.77
2018-12-23T00:33:57.608Z,5.50
2018-12-23T00:36:28.457Z,5.07
2018-12-23T00:38:59.477Z,5.97
2018-12-23T00:41:30.407Z,5.73
2018-12-23T00:44:01.297Z,5.73
2018-12-23T00:46:32.647Z,5.90
2018-12-23T00:49:03.847Z,5.53
2018-12-23T00:51:34.697Z,5.77
2018-12-23T00:54:05.532Z,5.30
2018-12-23T00:56:36.412Z,5.53
2018-12-23T00:59:07.588Z,5.83
2018-12-23T01:01:38.508Z,5.13
2018-12-23T01:04:09.377Z,5.93
2018-12-23T01:06:40.252Z,5.70
2018-12-23T01:09:11.067Z,5.47
2018-12-23T01:11:42.097Z,5.47
2018-12-23T01:14:13.007Z,5.90
2018-12-23T01:16:43.857Z,5.67
2018-12-23T01:19:15.273Z,4.57
2018-12-23T01:21:46.332Z,5.53
2018-12-23T01:24:17.068Z,6.05
2018-12-23T01:26:47.977Z,5.37
2018-12-23T01:29:18.772Z,5.80
2018-12-23T01:31:49.650Z,5.63
2018-12-23T01:34:20.478Z,5.63
2018-12-23T01:36:51.393Z,6.17
2018-12-23T01:39:22.377Z,5.30
2018-12-23T01:41:53.353Z,6.15
2018-12-23T01:44:24.152Z,5.80
2018-12-23T01:46:55.607Z,6.27
2018-12-23T01:49:26.708Z,5.47
2018-12-23T01:51:57.527Z,6.17
2018-12-23T01:54:28.332Z,5.93
2018-12-23T01:56:59.237Z,5.67
2018-12-23T01:59:30.033Z,6.25
2018-12-23T02:02:01.077Z,5.70
2018-12-23T02:04:31.942Z,5.87
2018-12-23T02:07:02.683Z,6.00
2018-12-23T02:09:33.602Z,6.80
2018-12-23T02:12:04.538Z,6.40
2018-12-23T02:14:35.320Z,6.00
2018-12-23T02:17:06.147Z,6.00
2018-12-23T02:19:37.098Z,5.53
2018-12-23T02:22:07.842Z,6.40
2018-12-23T02:24:38.597Z,5.67
2018-12-23T02:27:09.302Z,5.87
2018-12-23T02:29:41.157Z,5.63
2018-12-23T02:32:11.897Z,6.40
2018-12-23T02:34:42.882Z,6.67
2018-12-23T02:37:13.618Z,6.20
2018-12-23T02:39:44.628Z,6.37
2018-12-23T02:42:15.398Z,5.43
2018-12-23T02:44:46.973Z,6.45
2018-12-23T02:47:18.153Z,7.03
2018-12-23T02:49:49.063Z,6.17
2018-12-23T02:52:19.877Z,5.80
2018-12-23T02:54:50.642Z,6.17
2018-12-23T02:57:21.442Z,6.10
2018-12-23T02:59:58.622Z,5.90
2018-12-23T03:02:29.713Z,6.57
2018-12-23T03:05:00.572Z,6.53
2018-12-23T03:07:31.411Z,6.57
2018-12-23T03:10:02.176Z,6.13
2018-12-23T03:12:33.143Z,6.90
2018-12-23T03:15:03.962Z,6.70
2018-12-23T03:17:34.747Z,5.67
2018-12-23T03:20:05.881Z,6.87
2018-12-23T03:22:36.783Z,7.43
2018-12-23T03:25:07.651Z,7.90
2018-12-23T03:27:38.447Z,7.43
2018-12-23T03:30:09.303Z,8.07
2018-12-23T03:32:40.082Z,7.03
2018-12-23T03:35:10.916Z,7.50
2018-12-23T03:37:41.597Z,7.90
2018-12-23T03:40:12.346Z,7.92
2018-12-23T03:42:43.176Z,7.30
2018-12-23T03:45:14.036Z,8.17
2018-12-23T03:47:45.286Z,7.47
2018-12-23T03:50:16.362Z,8.30
2018-12-23T03:52:47.356Z,8.40
2018-12-23T03:55:18.146Z,8.37
2018-12-23T03:57:48.966Z,7.93
2018-12-23T04:00:19.881Z,9.27
2018-12-23T04:02:50.879Z,9.37
2018-12-23T04:05:21.710Z,7.83
2018-12-23T04:07:52.621Z,8.50
2018-12-23T04:10:23.403Z,8.57
2018-12-23T04:12:54.431Z,9.73
2018-12-23T04:15:25.216Z,9.50
2018-12-23T04:17:57.446Z,9.40
2018-12-23T04:20:28.381Z,10.00
2018-12-23T04:22:59.206Z,9.20
2018-12-23T04:25:30.016Z,9.30
2018-12-23T04:28:00.872Z,9.33
2018-12-23T04:30:31.661Z,9.10
2018-12-23T04:33:02.561Z,9.37
2018-12-23T04:35:39.772Z,8.57
2018-12-23T04:38:10.676Z,8.43
2018-12-23T04:40:41.381Z,9.27
2018-12-23T04:43:12.267Z,9.53
2018-12-23T04:45:43.072Z,10.37
2018-12-23T04:48:14.492Z,10.17
2018-12-23T04:50:45.396Z,9.60
2018-12-23T04:53:16.265Z,9.70
2018-12-23T04:55:47.128Z,10.27
2018-12-23T04:58:18.237Z,10.57
2018-12-23T05:00:49.992Z,10.23
2018-12-23T05:03:20.857Z,10.13
2018-12-23T05:05:51.617Z,11.80
2018-12-23T05:08:22.441Z,10.17
2018-12-23T05:10:53.206Z,10.53
2018-12-23T05:13:24.027Z,10.60
2018-12-23T05:15:54.682Z,10.67
2018-12-23T05:18:25.643Z,11.43
2018-12-23T05:20:56.678Z,10.38
2018-12-23T05:23:28.792Z,11.83
2018-12-23T05:25:59.722Z,11.30
2018-12-23T05:28:30.481Z,11.17
2018-12-23T05:31:01.136Z,10.98
2018-12-23T05:33:31.882Z,11.40
2018-12-23T05:36:02.685Z,9.43
2018-12-23T05:38:33.636Z,11.17
2018-12-23T05:41:04.452Z,10.90
2018-12-23T05:43:35.354Z,10.60
2018-12-23T05:46:06.137Z,11.80
2018-12-23T05:48:37.562Z,11.37
2018-12-23T05:51:08.469Z,12.05
2018-12-23T05:53:39.471Z,11.43
2018-12-23T05:56:10.271Z,12.43
2018-12-23T05:58:41.081Z,10.60
2018-12-23T06:01:11.861Z,11.70
2018-12-23T06:03:42.722Z,10.97
2018-12-23T06:06:13.491Z,10.57
2018-12-23T06:08:47.241Z,11.47
2018-12-23T06:11:17.972Z,13.08
2018-12-23T06:13:49.721Z,13.00
2018-12-23T06:16:20.506Z,12.27
2018-12-23T06:18:51.792Z,11.33
2018-12-23T06:21:22.918Z,11.00
2018-12-23T06:23:53.793Z,7.87
2018-12-23T06:26:24.529Z,8.60
2018-12-23T06:28:55.387Z,8.23
2018-12-23T06:31:26.824Z,8.13
2018-12-23T06:33:58.856Z,9.50
2018-12-23T06:36:29.601Z,8.50
2018-12-23T06:39:00.532Z,7.17
2018-12-23T06:41:31.401Z,7.17
2018-12-23T06:44:02.275Z,11.00
2018-12-23T06:46:33.061Z,6.43
2018-12-23T06:49:04.437Z,6.90
2018-12-23T06:51:35.557Z,7.87
2018-12-23T06:54:06.496Z,7.10
2018-12-23T06:56:37.316Z,6.00
2018-12-23T06:59:08.239Z,8.10
2018-12-23T07:01:39.086Z,6.73
2018-12-23T07:04:10.146Z,4.10
2018-12-23T07:06:40.936Z,5.07
2018-12-23T07:09:11.861Z,5.53
2018-12-23T07:11:42.670Z,3.93
2018-12-23T07:14:13.521Z,3.10
2018-12-23T07:16:47.265Z,2.77
2018-12-23T07:19:18.321Z,3.33
2018-12-23T07:21:49.246Z,4.17
2018-12-23T07:24:20.070Z,4.03
2018-12-23T07:26:50.996Z,4.37
2018-12-23T07:29:21.846Z,4.00
2018-12-23T07:31:53.556Z,4.23
2018-12-23T07:34:24.391Z,3.63
2018-12-23T07:36:55.460Z,3.73
2018-12-23T07:39:26.296Z,4.13
2018-12-23T07:41:57.151Z,3.73
2018-12-23T07:44:28.098Z,3.10
2018-12-23T07:46:58.877Z,4.10
2018-12-23T07:49:30.275Z,4.53
2018-12-23T07:52:01.262Z,4.33
2018-12-23T07:54:32.192Z,5.23
2018-12-23T07:57:02.962Z,7.20
2018-12-23T07:59:34.011Z,7.67
2018-12-23T08:02:05.297Z,7.03
2018-12-23T08:04:36.232Z,7.43
2018-12-23T08:07:07.240Z,7.77
2018-12-23T08:09:38.291Z,5.53
2018-12-23T08:12:09.166Z,5.03
2018-12-23T08:14:40.065Z,4.57
2018-12-23T08:17:11.060Z,4.63
2018-12-23T08:19:41.976Z,4.50
2018-12-23T08:22:13.000Z,3.57
2018-12-23T08:24:44.560Z,4.20
2018-12-23T08:27:15.521Z,3.80
2018-12-23T08:29:46.616Z,4.10
2018-12-23T08:32:17.420Z,2.97
2018-12-23T08:34:48.335Z,4.23
2018-12-23T08:37:19.212Z,5.60
2018-12-23T08:39:50.196Z,5.23
2018-12-23T08:42:21.037Z,4.78
2018-12-23T08:44:52.180Z,4.67
2018-12-23T08:47:22.971Z,5.07
2018-12-23T08:49:54.226Z,4.77
2018-12-23T08:52:25.211Z,4.43
2018-12-23T08:54:56.396Z,4.50
2018-12-23T08:57:27.206Z,4.30
2018-12-23T08:59:58.185Z,5.20
2018-12-23T09:02:29.106Z,4.40
2018-12-23T09:05:00.001Z,4.70
2018-12-23T09:07:30.940Z,4.90
2018-12-23T09:10:02.046Z,4.00
2018-12-23T09:12:33.022Z,5.03
2018-12-23T09:15:04.026Z,4.50
2018-12-23T09:17:34.906Z,5.00
2018-12-23T09:20:05.917Z,4.10
2018-12-23T09:22:36.968Z,5.20
2018-12-23T09:25:08.975Z,5.17
2018-12-23T09:27:39.872Z,4.23
2018-12-23T09:30:10.877Z,5.33
2018-12-23T09:32:41.810Z,4.40
2018-12-23T09:35:13.082Z,4.30
2018-12-23T09:37:44.020Z,4.53
2018-12-23T09:40:15.308Z,4.37
2018-12-23T09:42:46.180Z,5.30
2018-12-23T09:45:17.231Z,4.73
2018-12-23T09:47:48.081Z,6.47
2018-12-23T09:50:19.547Z,5.80
2018-12-23T09:52:50.538Z,6.50
2018-12-23T09:55:21.505Z,6.50
2018-12-23T09:57:52.273Z,6.03
2018-12-23T10:00:23.131Z,6.30
2018-12-23T10:02:53.906Z,5.67
2018-12-23T10:05:24.820Z,4.77
2018-12-23T10:07:55.680Z,3.87
2018-12-23T10:10:28.538Z,4.10
2018-12-23T10:12:59.451Z,5.00
2018-12-23T10:15:30.481Z,5.33
2018-12-23T10:18:02.491Z,5.92
2018-12-23T10:20:33.362Z,4.83
2018-12-23T10:23:04.387Z,4.00
2018-12-23T10:25:35.306Z,4.93
2018-12-23T10:28:06.111Z,4.73
2018-12-23T10:30:37.006Z,5.23
2018-12-23T10:33:09.032Z,5.08
2018-12-23T10:35:40.181Z,4.33
2018-12-23T10:38:18.355Z,4.63
2018-12-23T10:40:45.390Z,4.53
2018-12-23T10:43:16.151Z,4.40
2018-12-23T10:45:47.232Z,5.17
2018-12-23T10:48:18.217Z,8.47
2018-12-23T10:50:49.417Z,4.43
2018-12-23T10:53:20.196Z,4.40
2018-12-23T10:55:51.107Z,4.73
2018-12-23T10:58:21.811Z,4.63
2018-12-23T11:00:52.678Z,4.37
2018-12-23T11:03:23.442Z,6.13
2018-12-23T11:05:54.290Z,3.90
2018-12-23T11:08:26.980Z,3.90
2018-12-23T11:10:58.786Z,3.40
2018-12-23T11:13:29.494Z,4.93
2018-12-23T11:16:00.442Z,5.63
2018-12-23T11:18:31.281Z,6.63
2018-12-23T11:21:02.391Z,3.83
2018-12-23T11:23:33.571Z,5.93
2018-12-23T11:26:04.521Z,7.53
2018-12-23T11:28:35.365Z,7.43
2018-12-23T11:31:06.315Z,4.87
2018-12-23T11:33:37.180Z,6.77
2018-12-23T11:36:08.051Z,4.97
2018-12-23T11:38:38.986Z,3.37
2018-12-23T11:41:09.898Z,4.43
2018-12-23T11:43:40.930Z,4.27
2018-12-23T11:46:11.962Z,4.83
2018-12-23T11:48:43.040Z,4.30
2018-12-23T11:51:14.471Z,3.90
2018-12-23T11:53:45.520Z,4.17
2018-12-23T11:56:16.721Z,3.35
2018-12-23T11:58:47.546Z,3.30
2018-12-23T12:01:18.435Z,4.20
2018-12-23T12:03:49.220Z,3.07
2018-12-23T12:06:20.113Z,3.13
2018-12-23T12:08:51.310Z,3.57
2018-12-23T12:11:22.285Z,3.27
2018-12-23T12:13:53.176Z,3.23
2018-12-23T12:16:24.150Z,3.27
2018-12-23T12:18:55.166Z,3.20
2018-12-23T12:21:26.435Z,3.07
2018-12-23T12:23:57.477Z,4.10
2018-12-23T12:26:28.556Z,4.40
2018-12-23T12:29:00.591Z,4.33
2018-12-23T12:31:31.660Z,4.23
2018-12-23T12:34:02.558Z,3.90
2018-12-23T12:36:34.388Z,4.80
2018-12-23T12:39:07.706Z,4.30
2018-12-23T12:41:39.181Z,4.62
2018-12-23T12:44:10.237Z,5.07
2018-12-23T12:46:41.307Z,3.87
2018-12-23T12:49:12.172Z,3.50
2018-12-23T12:51:43.781Z,3.27
2018-12-23T12:54:15.016Z,3.57
2018-12-23T12:56:46.342Z,2.87
2018-12-23T12:59:17.228Z,3.47
2018-12-23T13:01:48.602Z,3.83
2018-12-23T13:04:19.636Z,3.17
2018-12-23T13:06:53.816Z,3.50
2018-12-23T13:09:25.087Z,3.63
2018-12-23T13:11:56.037Z,4.17
2018-12-23T13:14:27.003Z,4.03
2018-12-23T13:16:57.772Z,4.03
2018-12-23T13:19:29.164Z,4.43
2018-12-23T13:22:00.208Z,3.77
2018-12-23T13:24:31.183Z,3.63
2018-12-23T13:27:02.062Z,4.23
2018-12-23T13:29:33.041Z,3.20
2018-12-23T13:32:04.992Z,3.57
2018-12-23T13:34:35.826Z,3.57
2018-12-23T13:37:06.921Z,4.03
2018-12-23T13:39:38.031Z,4.03
2018-12-23T13:42:23.667Z,3.30
2018-12-23T13:45:40.512Z,3.63
2018-12-23T13:49:38.581Z,2.87
2018-12-23T13:52:31.261Z,3.30
2018-12-23T13:55:11.912Z,5.03
2018-12-23T13:59:54.223Z,3.87
2018-12-23T14:02:48.612Z,3.83
2018-12-23T14:05:31.902Z,4.37
2018-12-23T14:10:17.202Z,4.03
2018-12-23T14:12:48.160Z,2.90
2018-12-23T14:15:19.327Z,3.30
2018-12-23T14:17:51.031Z,3.33
2018-12-23T14:20:22.326Z,3.30
2018-12-23T14:22:53.311Z,4.43
2018-12-23T14:25:24.404Z,4.53
2018-12-23T14:27:55.421Z,4.57
2018-12-23T14:30:26.482Z,4.87
2018-12-23T14:32:57.430Z,4.97
2018-12-23T14:35:28.421Z,5.70
2018-12-23T14:37:59.547Z,5.77
2018-12-23T14:40:30.692Z,5.93
2018-12-23T14:43:01.823Z,6.00
2018-12-23T14:45:32.700Z,6.60
2018-12-23T14:48:03.936Z,6.37
2018-12-23T14:50:34.997Z,7.67
2018-12-23T14:53:06.491Z,8.73
2018-12-23T14:55:37.532Z,6.57
2018-12-23T14:58:08.703Z,7.33
2018-12-23T15:00:39.867Z,6.87
2018-12-23T15:03:10.804Z,7.97
2018-12-23T15:05:41.948Z,8.07
2018-12-23T15:08:13.361Z,8.60
2018-12-23T15:10:44.491Z,9.57
2018-12-23T15:13:15.323Z,9.80
2018-12-23T15:15:46.597Z,8.20
2018-12-23T15:18:17.561Z,8.15
2018-12-23T15:20:48.497Z,9.23
2018-12-23T15:23:19.747Z,7.57
2018-12-23T15:25:51.487Z,8.80
2018-12-23T15:28:22.472Z,8.23
2018-12-23T15:30:53.771Z,8.80
2018-12-23T15:33:24.734Z,8.57
2018-12-23T15:35:55.926Z,8.23
2018-12-23T15:38:26.891Z,7.77
2018-12-23T15:40:57.879Z,8.17
2018-12-23T15:43:28.796Z,7.57
2018-12-23T15:45:59.801Z,8.63
2018-12-23T15:48:30.931Z,8.40
2018-12-23T15:51:01.934Z,8.90
2018-12-23T15:53:33.517Z,9.00
2018-12-23T15:56:05.152Z,8.68
2018-12-23T15:58:36.367Z,10.00
2018-12-23T16:01:08.741Z,9.57
2018-12-23T16:03:39.562Z,9.43
2018-12-23T16:06:10.459Z,9.53
2018-12-23T16:08:41.403Z,8.67
2018-12-23T16:11:12.715Z,9.70
2018-12-23T16:13:43.491Z,9.67
2018-12-23T16:16:14.454Z,9.50
2018-12-23T16:18:45.307Z,9.33
2018-12-23T16:21:16.106Z,8.60
2018-12-23T16:23:46.976Z,8.23
2018-12-23T16:26:18.776Z,7.67
2018-12-23T16:28:49.461Z,8.93
2018-12-23T16:31:20.336Z,8.63
2018-12-23T16:33:51.136Z,9.17
2018-12-23T16:36:22.046Z,8.40
2018-12-23T16:38:52.907Z,8.10
2018-12-23T16:41:23.843Z,6.77
2018-12-23T16:43:54.731Z,6.90
2018-12-23T16:46:25.652Z,9.30
2018-12-23T16:48:56.436Z,8.40
2018-12-23T16:51:27.317Z,8.87
2018-12-23T16:53:58.911Z,7.00
2018-12-23T16:56:29.967Z,7.50
2018-12-23T16:59:01.092Z,8.83
2018-12-23T17:01:31.947Z,9.17
2018-12-23T17:04:02.656Z,7.63
2018-12-23T17:06:33.636Z,8.63
2018-12-23T17:09:06.661Z,7.65
2018-12-23T17:11:37.721Z,8.20
2018-12-23T17:14:10.647Z,7.80
2018-12-23T17:16:41.678Z,7.90
2018-12-23T17:19:12.531Z,7.40
2018-12-23T17:21:43.362Z,8.63
2018-12-23T17:24:14.171Z,6.87
2018-12-23T17:26:45.216Z,7.13
2018-12-23T17:29:22.096Z,7.13
2018-12-23T17:31:53.036Z,7.50
2018-12-23T17:34:23.952Z,7.83
2018-12-23T17:37:00.371Z,7.50
2018-12-23T17:39:32.311Z,7.40
2018-12-23T17:42:03.547Z,8.13
2018-12-23T17:44:35.418Z,7.77
2018-12-23T17:47:07.582Z,7.47
2018-12-23T17:49:38.251Z,8.00
2018-12-23T17:52:09.196Z,7.27
2018-12-23T17:54:40.346Z,7.70
2018-12-23T17:57:11.352Z,7.00
2018-12-23T17:59:42.687Z,6.87
2018-12-23T18:02:13.524Z,7.37
2018-12-23T18:04:44.347Z,8.67
2018-12-23T18:07:15.245Z,7.50
2018-12-23T18:09:45.939Z,7.57
2018-12-23T18:12:17.891Z,7.03
2018-12-23T18:14:48.633Z,6.80
2018-12-23T18:17:19.389Z,6.67
2018-12-23T18:19:50.182Z,7.27
2018-12-23T18:22:21.087Z,6.73
2018-12-23T18:24:51.812Z,7.33
2018-12-23T18:27:22.716Z,6.45
2018-12-23T18:29:53.532Z,7.17
2018-12-23T18:32:24.452Z,6.70
2018-12-23T18:34:55.222Z,7.27
2018-12-23T18:37:26.077Z,6.90
2018-12-23T18:39:56.808Z,6.77
2018-12-23T18:42:27.737Z,6.73
2018-12-23T18:44:58.631Z,7.90
2018-12-23T18:47:29.452Z,7.57
2018-12-23T18:50:00.322Z,7.40
2018-12-23T18:52:31.184Z,8.00
2018-12-23T18:55:02.472Z,8.70
2018-12-23T18:57:38.202Z,8.40
2018-12-23T19:00:10.047Z,9.33
2018-12-23T19:02:49.832Z,8.93
2018-12-23T19:05:20.789Z,9.13
2018-12-23T19:07:54.837Z,9.03
2018-12-23T19:10:41.973Z,11.07
2018-12-23T19:13:21.588Z,10.40
2018-12-23T19:16:16.662Z,9.20
2018-12-23T19:19:20.187Z,8.77
2018-12-23T19:22:01.402Z,8.17
2018-12-23T19:24:43.792Z,7.85
2018-12-23T19:29:29.278Z,8.50
2018-12-23T19:32:09.752Z,8.20
2018-12-23T19:36:21.907Z,7.90
2018-12-23T19:39:06.102Z,8.07
2018-12-23T19:42:02.371Z,9.35
2018-12-23T19:45:47.901Z,7.87
2018-12-23T19:48:47.067Z,8.98
2018-12-23T19:51:29.642Z,9.88
2018-12-23T19:54:28.098Z,8.10
2018-12-23T19:57:16.272Z,9.23
2018-12-23T19:59:58.758Z,8.77
2018-12-23T20:03:43.592Z,9.23
2018-12-23T20:06:25.933Z,7.80
2018-12-23T20:12:13.221Z,8.93
2018-12-23T20:14:55.652Z,7.83
2018-12-23T20:17:46.892Z,8.20
2018-12-23T20:20:34.097Z,9.78
2018-12-23T20:23:21.668Z,9.40
2018-12-23T20:26:05.852Z,10.03
2018-12-23T20:29:23.217Z,9.77
2018-12-23T20:32:33.392Z,8.23
2018-12-23T20:35:14.006Z,8.87
2018-12-23T20:43:00.388Z,6.73
2018-12-23T20:46:20.917Z,7.47
2018-12-23T20:49:48.571Z,8.40
2018-12-23T20:53:00.707Z,9.23
2018-12-23T20:56:02.762Z,11.10
2018-12-23T20:59:12.002Z,12.90
2018-12-23T21:02:46.222Z,11.50
2018-12-23T21:05:43.846Z,12.10
2018-12-23T21:08:44.836Z,11.27
2018-12-23T21:11:55.357Z,11.27
2018-12-23T21:15:03.901Z,10.43
2018-12-23T21:17:56.240Z,10.07
2018-12-23T21:21:05.046Z,8.50
2018-12-23T21:24:18.859Z,9.37
2018-12-23T21:27:26.376Z,9.10
2018-12-23T21:30:34.623Z,9.33
2018-12-23T21:33:41.722Z,7.30
2018-12-23T21:36:39.661Z,6.97
2018-12-23T21:39:48.982Z,7.83
2018-12-23T21:43:06.022Z,7.90
2018-12-23T21:46:12.276Z,8.35
2018-12-23T21:49:14.371Z,9.33
2018-12-23T21:52:29.815Z,9.13
2018-12-23T21:55:25.853Z,8.87
2018-12-23T21:58:20.561Z,9.13
2018-12-23T22:01:12.486Z,8.67
2018-12-23T22:04:16.406Z,9.25
2018-12-23T22:07:28.062Z,7.37
2018-12-23T22:10:17.916Z,7.83
2018-12-23T22:13:28.756Z,6.50
2018-12-23T22:16:01.181Z,6.95
2018-12-23T22:18:33.969Z,5.67
2018-12-23T22:21:06.106Z,6.13
2018-12-23T22:23:38.346Z,6.90
2018-12-23T22:26:10.425Z,6.90
2018-12-23T22:28:42.387Z,7.27
2018-12-23T22:31:14.326Z,7.20
2018-12-23T22:33:47.121Z,9.70
2018-12-23T22:36:19.636Z,6.72
2018-12-23T22:38:51.965Z,8.23
2018-12-23T22:41:41.258Z,7.70
2018-12-23T22:44:10.567Z,8.50
2018-12-23T22:46:42.886Z,8.57
2018-12-23T22:49:14.857Z,7.30
2018-12-23T22:51:47.082Z,7.53
2018-12-23T22:54:19.086Z,6.55
2018-12-23T22:56:51.494Z,6.03
2018-12-23T22:59:23.447Z,7.07
2018-12-23T23:01:56.924Z,6.17
2018-12-23T23:04:30.306Z,6.10
2018-12-23T23:07:02.161Z,5.97
2018-12-23T23:09:34.706Z,5.50
2018-12-23T23:12:06.846Z,5.40
2018-12-23T23:14:38.881Z,5.43
2018-12-23T23:17:12.751Z,6.50
2018-12-23T23:19:45.026Z,6.00
2018-12-23T23:22:17.716Z,5.37
2018-12-23T23:24:50.086Z,6.17
2018-12-23T23:27:22.586Z,4.95
2018-12-23T23:29:54.910Z,4.70
2018-12-23T23:32:27.140Z,4.80
2018-12-23T23:34:59.041Z,7.03
2018-12-23T23:37:30.931Z,6.23
2018-12-23T23:40:03.369Z,6.30
2018-12-23T23:42:35.631Z,6.63
2018-12-23T23:45:08.020Z,6.53
2018-12-23T23:47:40.016Z,6.23
2018-12-23T23:50:11.961Z,7.07
2018-12-23T23:52:43.771Z,6.57
2018-12-23T23:55:18.205Z,7.33
2018-12-23T23:57:50.101Z,7.33
